createdAt,value
2023-04-18T00:04:21.002Z,20.56
2023-04-18T00:09:24.548Z,20.60
2023-04-18T00:14:30.067Z,20.60
2023-04-18T00:19:34.339Z,20.54
2023-04-18T00:24:37.092Z,20.53
2023-04-18T00:29:40.794Z,20.48
2023-04-18T00:34:45.202Z,20.44
2023-04-18T00:39:48.186Z,20.43
2023-04-18T00:44:50.986Z,20.42
2023-04-18T00:49:55.219Z,20.38
2023-04-18T00:54:58.023Z,20.36
2023-04-18T01:00:00.981Z,20.37
2023-04-18T01:05:06.640Z,20.30
2023-04-18T01:10:10.476Z,20.26
2023-04-18T01:15:13.225Z,20.23
2023-04-18T01:20:17.428Z,20.23
2023-04-18T01:25:21.534Z,20.21
2023-04-18T01:30:24.259Z,20.20
2023-04-18T01:35:27.213Z,20.19
2023-04-18T01:40:33.500Z,20.13
2023-04-18T01:45:36.271Z,20.13
2023-04-18T01:50:39.053Z,20.12
2023-04-18T01:55:43.214Z,20.10
2023-04-18T02:00:46.160Z,20.04
2023-04-18T02:05:48.976Z,20.05
2023-04-18T02:10:53.095Z,20.05
2023-04-18T02:15:56.896Z,20.04
2023-04-18T02:20:59.896Z,20.01
2023-04-18T02:26:05.766Z,20.00
2023-04-18T02:31:14.350Z,19.97
2023-04-18T02:36:17.225Z,19.97
2023-04-18T02:41:21.405Z,19.98
2023-04-18T02:46:24.205Z,19.98
2023-04-18T02:51:28.124Z,19.95
2023-04-18T02:56:39.718Z,19.97
2023-04-18T03:01:51.736Z,19.97
2023-04-18T03:06:59.122Z,19.97
2023-04-18T03:12:04.053Z,19.91
2023-04-18T03:17:07.970Z,19.95
2023-04-18T03:22:16.336Z,19.92
2023-04-18T03:27:28.694Z,19.92
2023-04-18T03:32:35.092Z,19.89
2023-04-18T03:37:38.178Z,19.89
2023-04-18T03:42:44.124Z,19.88
2023-04-18T03:47:47.173Z,19.88
2023-04-18T03:52:50.850Z,19.87
2023-04-18T03:57:55.721Z,19.87
2023-04-18T04:03:03.754Z,19.86
2023-04-18T04:08:07.342Z,19.85
2023-04-18T04:13:12.028Z,19.82
2023-04-18T04:18:16.987Z,19.83
2023-04-18T04:23:20.538Z,19.79
2023-04-18T04:28:26.132Z,19.79
2023-04-18T04:33:35.495Z,19.78
2023-04-18T04:38:44.233Z,19.72
2023-04-18T04:43:49.790Z,19.72
2023-04-18T04:48:55.559Z,19.71
2023-04-18T04:53:58.407Z,19.68
2023-04-18T04:59:02.880Z,19.66
2023-04-18T05:04:10.946Z,19.66
2023-04-18T05:09:14.227Z,19.66
2023-04-18T05:14:20.419Z,19.64
2023-04-18T05:19:23.680Z,19.63
2023-04-18T05:24:26.889Z,19.65
2023-04-18T05:29:31.203Z,19.64
2023-04-18T05:34:38.044Z,19.63
2023-04-18T05:39:41.705Z,19.63
2023-04-18T05:44:45.816Z,19.61
2023-04-18T05:49:48.544Z,19.63
2023-04-18T05:54:51.491Z,19.63
2023-04-18T05:59:55.817Z,19.63
2023-04-18T06:04:58.831Z,19.66
2023-04-18T06:10:01.957Z,19.63
2023-04-18T06:15:07.365Z,19.66
2023-04-18T06:20:11.410Z,19.66
2023-04-18T06:25:14.947Z,19.66
2023-04-18T06:30:21.763Z,19.61
2023-04-18T06:35:26.551Z,19.67
2023-04-18T06:40:29.602Z,19.65
2023-04-18T06:45:33.849Z,19.65
2023-04-18T06:50:36.758Z,19.64
2023-04-18T06:55:40.712Z,19.63
2023-04-18T07:00:47.561Z,19.60
2023-04-18T07:05:50.513Z,19.57
2023-04-18T07:10:53.272Z,19.51
2023-04-18T07:15:57.506Z,19.55
2023-04-18T07:21:00.363Z,19.57
2023-04-18T07:26:03.290Z,19.58
2023-04-18T07:31:11.219Z,19.51
2023-04-18T07:36:14.114Z,19.60
2023-04-18T07:41:16.924Z,19.64
2023-04-18T07:46:21.228Z,19.63
2023-04-18T07:51:25.512Z,19.66
2023-04-18T07:56:28.566Z,19.73
2023-04-18T08:01:32.729Z,19.79
2023-04-18T08:06:35.700Z,19.78
2023-04-18T08:11:38.969Z,19.63
2023-04-18T08:16:43.128Z,18.98
2023-04-18T08:21:45.933Z,18.62
2023-04-18T08:26:48.667Z,18.36
2023-04-18T08:31:53.024Z,18.11
2023-04-18T08:36:56.599Z,18.15
2023-04-18T08:41:59.937Z,18.65
2023-04-18T08:47:04.055Z,18.88
2023-04-18T08:52:09.975Z,19.03
2023-04-18T08:57:16.499Z,19.17
2023-04-18T09:02:22.089Z,19.25
2023-04-18T09:07:28.770Z,19.27
2023-04-18T09:12:32.633Z,19.33
2023-04-18T09:17:38.027Z,19.36
2023-04-18T09:22:46.373Z,19.39
2023-04-18T09:27:49.239Z,19.36
2023-04-18T09:33:00.176Z,19.38
2023-04-18T09:38:03.235Z,19.39
2023-04-18T09:43:18.716Z,19.49
2023-04-18T09:48:23.022Z,19.40
2023-04-18T09:53:25.921Z,19.56
2023-04-18T09:58:28.773Z,19.64
2023-04-18T10:03:35.633Z,19.66
2023-04-18T10:08:38.671Z,19.69
2023-04-18T10:13:42.456Z,19.67
2023-04-18T10:18:46.788Z,19.74
2023-04-18T10:23:50.401Z,19.83
2023-04-18T10:28:54.428Z,19.96
2023-04-18T10:34:17.894Z,20.10
2023-04-18T10:39:21.984Z,20.17
2023-04-18T10:44:24.863Z,20.18
2023-04-18T10:49:32.049Z,20.24
2023-04-18T10:54:38.944Z,20.31
2023-04-18T10:59:43.079Z,20.29
2023-04-18T11:04:51.258Z,20.43
2023-04-18T11:09:54.968Z,20.56
2023-04-18T11:14:57.916Z,20.59
2023-04-18T11:20:03.407Z,20.61
2023-04-18T11:25:08.752Z,20.65
2023-04-18T11:30:12.285Z,20.64
2023-04-18T11:35:16.813Z,20.60
2023-04-18T11:40:19.777Z,20.50
2023-04-18T11:45:22.552Z,20.41
2023-04-18T11:50:26.925Z,20.33
2023-04-18T11:55:29.700Z,20.30
2023-04-18T12:00:34.240Z,20.09
2023-04-18T12:05:39.139Z,20.04
2023-04-18T12:10:47.458Z,19.85
2023-04-18T12:15:50.685Z,19.72
2023-04-18T12:20:55.057Z,19.67
2023-04-18T12:26:02.098Z,19.68
2023-04-18T12:31:07.259Z,19.63
2023-04-18T12:36:11.815Z,19.66
2023-04-18T12:41:14.622Z,19.65
2023-04-18T12:46:17.448Z,19.57
2023-04-18T12:51:21.819Z,19.53
2023-04-18T12:56:24.669Z,19.39
2023-04-18T13:01:27.862Z,19.38
2023-04-18T13:06:32.015Z,19.42
2023-04-18T13:11:35.246Z,19.47
2023-04-18T13:16:38.351Z,19.50
2023-04-18T13:21:44.291Z,19.52
2023-04-18T13:26:47.135Z,19.51
2023-04-18T13:31:50.239Z,19.57
2023-04-18T13:36:54.371Z,19.64
2023-04-18T13:41:57.709Z,19.63
2023-04-18T13:47:01.058Z,19.62
2023-04-18T13:52:05.577Z,19.59
2023-04-18T13:57:11.492Z,19.60
2023-04-18T14:02:14.619Z,19.63
2023-04-18T14:07:19.031Z,19.71
2023-04-18T14:12:22.310Z,19.77
2023-04-18T14:17:25.443Z,19.77
2023-04-18T14:22:29.803Z,19.75
2023-04-18T14:27:32.908Z,19.76
2023-04-18T14:32:35.840Z,19.67
2023-04-18T14:37:40.317Z,19.66
2023-04-18T14:42:43.149Z,19.65
2023-04-18T14:47:46.030Z,19.74
2023-04-18T14:52:50.284Z,19.73
2023-04-18T14:57:54.674Z,19.72
2023-04-18T15:02:57.547Z,19.72
2023-04-18T15:08:02.037Z,19.74
2023-04-18T15:13:05.253Z,19.75
2023-04-18T15:18:08.689Z,19.74
2023-04-18T15:23:13.758Z,19.74
2023-04-18T15:28:18.224Z,19.73
2023-04-18T15:33:21.053Z,19.69
2023-04-18T15:38:25.375Z,19.73
2023-04-18T15:43:28.200Z,19.73
2023-04-18T15:48:34.114Z,19.73
2023-04-18T15:53:38.239Z,19.67
2023-04-18T15:58:41.039Z,19.68
2023-04-18T16:03:44.108Z,19.69
2023-04-18T16:08:48.333Z,19.65
2023-04-18T16:13:51.100Z,19.67
2023-04-18T16:18:53.864Z,19.69
2023-04-18T16:23:58.225Z,19.78
2023-04-18T16:29:01.096Z,19.90
2023-04-18T16:34:04.161Z,19.97
2023-04-18T16:39:08.549Z,20.05
2023-04-18T16:44:11.344Z,20.07
2023-04-18T16:49:14.480Z,20.11
2023-04-18T16:54:18.669Z,20.11
2023-04-18T16:59:21.502Z,20.23
2023-04-18T17:04:26.747Z,20.26
2023-04-18T17:09:31.173Z,20.33
2023-04-18T17:14:34.078Z,20.34
2023-04-18T17:19:37.151Z,20.36
2023-04-18T17:24:41.399Z,20.39
2023-04-18T17:29:44.386Z,20.41
2023-04-18T17:34:47.264Z,20.45
2023-04-18T17:39:51.451Z,20.46
2023-04-18T17:44:54.250Z,20.48
2023-04-18T17:49:57.089Z,20.51
2023-04-18T17:55:01.446Z,20.53
2023-04-18T18:00:08.874Z,20.57
2023-04-18T18:05:16.534Z,20.58
2023-04-18T18:10:23.145Z,20.62
2023-04-18T18:15:26.282Z,20.64
2023-04-18T18:20:29.339Z,20.68
2023-04-18T18:25:33.894Z,20.75
2023-04-18T18:30:38.032Z,20.76
2023-04-18T18:35:40.957Z,20.76
2023-04-18T18:40:45.431Z,20.79
2023-04-18T18:45:48.283Z,20.79
2023-04-18T18:50:51.929Z,20.87
2023-04-18T18:55:56.237Z,20.90
2023-04-18T19:01:02.494Z,20.97
2023-04-18T19:06:07.359Z,20.97
2023-04-18T19:11:12.734Z,21.01
2023-04-18T19:16:15.931Z,21.09
2023-04-18T19:21:20.138Z,21.09
2023-04-18T19:26:24.399Z,21.09
2023-04-18T19:31:27.415Z,21.14
2023-04-18T19:36:30.812Z,21.15
2023-04-18T19:41:34.949Z,21.19
2023-04-18T19:46:37.734Z,21.20
2023-04-18T19:51:40.678Z,21.22
2023-04-18T19:56:44.772Z,21.28
2023-04-18T20:01:47.519Z,21.28
2023-04-18T20:06:50.477Z,21.32
2023-04-18T20:11:54.812Z,21.34
2023-04-18T20:16:57.815Z,21.32
2023-04-18T20:22:00.623Z,21.25
2023-04-18T20:27:04.948Z,21.22
2023-04-18T20:32:07.787Z,21.35
2023-04-18T20:37:10.649Z,21.38
2023-04-18T20:42:15.002Z,21.46
2023-04-18T20:47:17.984Z,21.45
2023-04-18T20:52:20.746Z,21.49
2023-04-18T20:57:25.037Z,21.47
2023-04-18T21:02:28.004Z,21.41
2023-04-18T21:07:32.076Z,21.44
2023-04-18T21:12:36.217Z,21.50
2023-04-18T21:17:39.075Z,21.54
2023-04-18T21:22:41.833Z,21.51
2023-04-18T21:27:46.022Z,21.52
2023-04-18T21:32:51.336Z,21.53
2023-04-18T21:37:54.465Z,21.53
2023-04-18T21:42:58.577Z,21.55
2023-04-18T21:48:01.421Z,21.58
2023-04-18T21:53:04.246Z,21.57
2023-04-18T21:58:08.403Z,21.59
2023-04-18T22:03:11.670Z,21.60
2023-04-18T22:08:16.145Z,21.56
2023-04-18T22:13:20.445Z,21.58
2023-04-18T22:18:23.267Z,21.50
2023-04-18T22:23:27.242Z,21.48
2023-04-18T22:28:32.312Z,21.42
2023-04-18T22:33:35.320Z,21.38
2023-04-18T22:38:38.148Z,21.36
2023-04-18T22:43:42.408Z,21.36
2023-04-18T22:48:46.170Z,21.31
2023-04-18T22:53:49.396Z,21.23
2023-04-18T22:58:53.500Z,21.18
2023-04-18T23:03:56.663Z,21.12
2023-04-18T23:08:59.646Z,21.15
2023-04-18T23:14:03.831Z,21.10
2023-04-18T23:19:06.706Z,20.98
2023-04-18T23:24:10.670Z,20.92
2023-04-18T23:29:15.071Z,20.83
2023-04-18T23:34:17.869Z,20.83
2023-04-18T23:39:21.541Z,20.75
2023-04-18T23:44:25.765Z,20.72
2023-04-18T23:49:28.589Z,20.66
2023-04-18T23:54:31.388Z,20.66
2023-04-18T23:59:35.491Z,20.60
